sensor_id;sensor_type;location;lat;lon;timestamp;pressure;altitude;pressure_sealevel;temperature;humidity
21760;BME280;11041;50.854;20.580;2022-11-14T00:01:50;99974.66;;;6.23;87.18
21760;BME280;11041;50.854;20.580;2022-11-14T00:04:18;99971.38;;;6.21;87.68
21760;BME280;11041;50.854;20.580;2022-11-14T00:06:48;99977.91;;;6.19;87.55
21760;BME280;11041;50.854;20.580;2022-11-14T00:09:27;99972.69;;;6.18;86.98
21760;BME280;11041;50.854;20.580;2022-11-14T00:11:54;99977.91;;;6.19;87.67
21760;BME280;11041;50.854;20.580;2022-11-14T00:14:21;99982.22;;;6.15;87.25
21760;BME280;11041;50.854;20.580;2022-11-14T00:16:47;99979.44;;;6.10;87.15
21760;BME280;11041;50.854;20.580;2022-11-14T00:19:14;99979.94;;;6.07;87.35
21760;BME280;11041;50.854;20.580;2022-11-14T00:21:40;99966.75;;;5.99;86.87
21760;BME280;11041;50.854;20.580;2022-11-14T00:24:07;99982.03;;;6.00;87.57
21760;BME280;11041;50.854;20.580;2022-11-14T00:26:34;99971.28;;;5.93;87.18
21760;BME280;11041;50.854;20.580;2022-11-14T00:29:00;99974.38;;;5.97;87.68
21760;BME280;11041;50.854;20.580;2022-11-14T00:31:27;99978.06;;;5.91;87.32
21760;BME280;11041;50.854;20.580;2022-11-14T00:33:53;99974.28;;;5.92;87.57
21760;BME280;11041;50.854;20.580;2022-11-14T00:36:20;99976.16;;;5.91;87.59
21760;BME280;11041;50.854;20.580;2022-11-14T00:38:46;99966.88;;;5.87;87.94
21760;BME280;11041;50.854;20.580;2022-11-14T00:41:12;99947.09;;;5.75;87.40
21760;BME280;11041;50.854;20.580;2022-11-14T00:43:39;99962.88;;;5.73;87.30
21760;BME280;11041;50.854;20.580;2022-11-14T00:46:05;99964.03;;;5.60;87.13
21760;BME280;11041;50.854;20.580;2022-11-14T00:48:32;99960.44;;;5.54;87.67
21760;BME280;11041;50.854;20.580;2022-11-14T00:50:58;99957.47;;;5.56;88.67
21760;BME280;11041;50.854;20.580;2022-11-14T00:53:25;99959.88;;;5.52;88.67
21760;BME280;11041;50.854;20.580;2022-11-14T00:55:51;99971.09;;;5.56;88.44
21760;BME280;11041;50.854;20.580;2022-11-14T00:58:18;99972.75;;;5.57;88.60
21760;BME280;11041;50.854;20.580;2022-11-14T01:00:45;99965.66;;;5.56;88.53
21760;BME280;11041;50.854;20.580;2022-11-14T01:03:11;99958.06;;;5.58;88.85
21760;BME280;11041;50.854;20.580;2022-11-14T01:05:44;99959.16;;;5.62;88.48
21760;BME280;11041;50.854;20.580;2022-11-14T01:08:14;99960.63;;;5.70;88.81
21760;BME280;11041;50.854;20.580;2022-11-14T01:10:43;99961.97;;;5.67;88.59
21760;BME280;11041;50.854;20.580;2022-11-14T01:13:11;99957.66;;;5.71;88.72
21760;BME280;11041;50.854;20.580;2022-11-14T01:15:45;99958.47;;;5.72;88.56
21760;BME280;11041;50.854;20.580;2022-11-14T01:18:17;99956.03;;;5.70;88.70
21760;BME280;11041;50.854;20.580;2022-11-14T01:20:47;99961.91;;;5.62;88.61
21760;BME280;11041;50.854;20.580;2022-11-14T01:23:16;99950.69;;;5.59;88.73
21760;BME280;11041;50.854;20.580;2022-11-14T01:25:43;99940.84;;;5.58;89.10
21760;BME280;11041;50.854;20.580;2022-11-14T01:28:17;99944.41;;;5.58;88.85
21760;BME280;11041;50.854;20.580;2022-11-14T01:30:44;99944.13;;;5.60;88.93
21760;BME280;11041;50.854;20.580;2022-11-14T01:33:12;99942.50;;;5.59;88.89
21760;BME280;11041;50.854;20.580;2022-11-14T01:35:38;99936.53;;;5.62;89.04
21760;BME280;11041;50.854;20.580;2022-11-14T01:38:05;99928.59;;;5.60;89.00
21760;BME280;11041;50.854;20.580;2022-11-14T01:40:32;99933.06;;;5.66;88.54
21760;BME280;11041;50.854;20.580;2022-11-14T01:43:22;99935.22;;;5.64;88.78
21760;BME280;11041;50.854;20.580;2022-11-14T01:46:13;99918.53;;;5.61;88.98
21760;BME280;11041;50.854;20.580;2022-11-14T01:51:44;99922.97;;;5.67;88.83
21760;BME280;11041;50.854;20.580;2022-11-14T01:54:35;99924.06;;;5.66;88.56
21760;BME280;11041;50.854;20.580;2022-11-14T01:57:04;99909.28;;;5.62;88.96
21760;BME280;11041;50.854;20.580;2022-11-14T01:59:38;99918.03;;;5.64;88.41
21760;BME280;11041;50.854;20.580;2022-11-14T02:02:23;99924.81;;;5.61;88.59
21760;BME280;11041;50.854;20.580;2022-11-14T02:04:58;99922.09;;;5.61;88.55
21760;BME280;11041;50.854;20.580;2022-11-14T02:07:29;99917.22;;;5.63;88.35
21760;BME280;11041;50.854;20.580;2022-11-14T02:10:00;99909.50;;;5.60;88.68
21760;BME280;11041;50.854;20.580;2022-11-14T02:12:29;99895.81;;;5.55;88.20
21760;BME280;11041;50.854;20.580;2022-11-14T02:14:57;99891.41;;;5.49;88.07
21760;BME280;11041;50.854;20.580;2022-11-14T02:17:25;99896.78;;;5.44;88.38
21760;BME280;11041;50.854;20.580;2022-11-14T02:20:15;99903.06;;;5.44;88.63
21760;BME280;11041;50.854;20.580;2022-11-14T02:22:43;99896.69;;;5.39;88.41
21760;BME280;11041;50.854;20.580;2022-11-14T02:25:15;99888.47;;;5.33;88.22
21760;BME280;11041;50.854;20.580;2022-11-14T02:27:43;99879.91;;;5.25;88.29
21760;BME280;11041;50.854;20.580;2022-11-14T02:30:14;99889.22;;;5.29;88.75
21760;BME280;11041;50.854;20.580;2022-11-14T02:32:42;99885.63;;;5.23;88.39
21760;BME280;11041;50.854;20.580;2022-11-14T02:35:08;99893.28;;;5.26;88.07
21760;BME280;11041;50.854;20.580;2022-11-14T02:37:36;99892.16;;;5.22;88.20
21760;BME280;11041;50.854;20.580;2022-11-14T02:40:04;99895.47;;;5.24;88.41
21760;BME280;11041;50.854;20.580;2022-11-14T02:42:30;99879.53;;;5.16;88.18
21760;BME280;11041;50.854;20.580;2022-11-14T02:44:57;99877.88;;;5.15;88.29
21760;BME280;11041;50.854;20.580;2022-11-14T02:47:24;99879.53;;;5.16;88.47
21760;BME280;11041;50.854;20.580;2022-11-14T02:49:50;99886.44;;;5.24;88.17
21760;BME280;11041;50.854;20.580;2022-11-14T02:52:17;99877.69;;;5.22;88.31
21760;BME280;11041;50.854;20.580;2022-11-14T02:54:44;99879.00;;;5.19;87.92
21760;BME280;11041;50.854;20.580;2022-11-14T02:57:10;99869.72;;;5.15;88.97
21760;BME280;11041;50.854;20.580;2022-11-14T02:59:37;99874.66;;;5.18;88.58
21760;BME280;11041;50.854;20.580;2022-11-14T03:02:03;99875.75;;;5.17;88.37
21760;BME280;11041;50.854;20.580;2022-11-14T03:04:30;99874.06;;;5.16;88.58
21760;BME280;11041;50.854;20.580;2022-11-14T03:06:56;99883.06;;;5.17;88.49
21760;BME280;11041;50.854;20.580;2022-11-14T03:09:23;99865.84;;;5.11;88.57
21760;BME280;11041;50.854;20.580;2022-11-14T03:11:49;99864.50;;;5.13;88.69
21760;BME280;11041;50.854;20.580;2022-11-14T03:14:16;99853.31;;;5.10;88.64
21760;BME280;11041;50.854;20.580;2022-11-14T03:16:42;99865.91;;;5.16;88.46
21760;BME280;11041;50.854;20.580;2022-11-14T03:19:09;99872.50;;;5.20;88.36
21760;BME280;11041;50.854;20.580;2022-11-14T03:21:35;99869.19;;;5.18;88.77
21760;BME280;11041;50.854;20.580;2022-11-14T03:24:02;99853.38;;;5.15;88.58
21760;BME280;11041;50.854;20.580;2022-11-14T03:26:29;99872.22;;;5.22;88.64
21760;BME280;11041;50.854;20.580;2022-11-14T03:28:55;99865.09;;;5.16;88.74
21760;BME280;11041;50.854;20.580;2022-11-14T03:31:22;99856.91;;;5.16;89.09
21760;BME280;11041;50.854;20.580;2022-11-14T03:33:48;99851.13;;;5.12;88.57
21760;BME280;11041;50.854;20.580;2022-11-14T03:36:15;99854.13;;;5.10;88.80
21760;BME280;11041;50.854;20.580;2022-11-14T03:38:42;99850.56;;;5.10;88.92
21760;BME280;11041;50.854;20.580;2022-11-14T03:41:08;99859.38;;;5.17;88.90
21760;BME280;11041;50.854;20.580;2022-11-14T03:43:35;99849.50;;;5.11;88.32
21760;BME280;11041;50.854;20.580;2022-11-14T03:46:03;99852.78;;;5.13;88.83
21760;BME280;11041;50.854;20.580;2022-11-14T03:48:30;99846.69;;;5.06;88.56
21760;BME280;11041;50.854;20.580;2022-11-14T03:50:56;99852.72;;;5.08;88.77
21760;BME280;11041;50.854;20.580;2022-11-14T03:53:24;99852.97;;;5.06;88.37
21760;BME280;11041;50.854;20.580;2022-11-14T03:55:51;99845.53;;;5.02;89.01
21760;BME280;11041;50.854;20.580;2022-11-14T03:58:17;99842.81;;;5.02;88.83
21760;BME280;11041;50.854;20.580;2022-11-14T04:00:44;99846.13;;;5.04;88.83
21760;BME280;11041;50.854;20.580;2022-11-14T04:03:10;99853.31;;;5.10;88.86
21760;BME280;11041;50.854;20.580;2022-11-14T04:05:37;99854.38;;;5.09;88.91
21760;BME280;11041;50.854;20.580;2022-11-14T04:08:05;99842.06;;;5.06;89.47
21760;BME280;11041;50.854;20.580;2022-11-14T04:10:32;99841.81;;;5.08;89.23
21760;BME280;11041;50.854;20.580;2022-11-14T04:12:58;99831.75;;;5.08;88.88
21760;BME280;11041;50.854;20.580;2022-11-14T04:15:25;99837.78;;;5.10;89.06
21760;BME280;11041;50.854;20.580;2022-11-14T04:17:51;99834.47;;;5.08;88.96
21760;BME280;11041;50.854;20.580;2022-11-14T04:20:18;99827.13;;;5.09;88.87
21760;BME280;11041;50.854;20.580;2022-11-14T04:22:45;99833.38;;;5.09;89.57
21760;BME280;11041;50.854;20.580;2022-11-14T04:25:12;99833.44;;;5.15;89.23
21760;BME280;11041;50.854;20.580;2022-11-14T04:27:38;99823.13;;;5.17;89.35
21760;BME280;11041;50.854;20.580;2022-11-14T04:30:06;99820.84;;;5.08;88.75
21760;BME280;11041;50.854;20.580;2022-11-14T04:32:32;99821.44;;;5.10;89.02
21760;BME280;11041;50.854;20.580;2022-11-14T04:34:59;99832.97;;;5.18;89.11
21760;BME280;11041;50.854;20.580;2022-11-14T04:37:25;99823.41;;;5.15;89.42
21760;BME280;11041;50.854;20.580;2022-11-14T04:39:52;99834.34;;;5.20;89.35
21760;BME280;11041;50.854;20.580;2022-11-14T04:42:19;99821.72;;;5.14;88.61
21760;BME280;11041;50.854;20.580;2022-11-14T04:44:45;99818.94;;;5.09;88.27
21760;BME280;11041;50.854;20.580;2022-11-14T04:47:12;99823.06;;;5.11;89.25
21760;BME280;11041;50.854;20.580;2022-11-14T04:49:38;99826.06;;;5.10;88.79
21760;BME280;11041;50.854;20.580;2022-11-14T04:52:05;99809.63;;;5.05;89.14
21760;BME280;11041;50.854;20.580;2022-11-14T04:54:31;99821.44;;;5.10;89.35
21760;BME280;11041;50.854;20.580;2022-11-14T04:56:57;99826.31;;;5.08;89.68
21760;BME280;11041;50.854;20.580;2022-11-14T04:59:24;99818.13;;;5.08;89.89
21760;BME280;11041;50.854;20.580;2022-11-14T05:01:50;99820.63;;;5.10;89.75
21760;BME280;11041;50.854;20.580;2022-11-14T05:04:17;99820.91;;;5.13;89.79
21760;BME280;11041;50.854;20.580;2022-11-14T05:06:44;99817.63;;;5.11;89.19
21760;BME280;11041;50.854;20.580;2022-11-14T05:09:12;99822.88;;;5.18;89.62
21760;BME280;11041;50.854;20.580;2022-11-14T05:11:39;99807.81;;;5.10;89.50
21760;BME280;11041;50.854;20.580;2022-11-14T05:14:05;99819.06;;;5.19;89.74
21760;BME280;11041;50.854;20.580;2022-11-14T05:16:32;99822.63;;;5.20;89.56
21760;BME280;11041;50.854;20.580;2022-11-14T05:18:59;99812.50;;;5.15;89.35
21760;BME280;11041;50.854;20.580;2022-11-14T05:21:25;99800.44;;;5.11;88.57
21760;BME280;11041;50.854;20.580;2022-11-14T05:23:52;99810.84;;;5.14;88.74
21760;BME280;11041;50.854;20.580;2022-11-14T05:26:18;99804.75;;;5.07;89.59
21760;BME280;11041;50.854;20.580;2022-11-14T05:28:45;99809.72;;;5.10;89.54
21760;BME280;11041;50.854;20.580;2022-11-14T05:31:13;99812.69;;;5.08;89.33
21760;BME280;11041;50.854;20.580;2022-11-14T05:33:44;99806.09;;;5.04;89.13
21760;BME280;11041;50.854;20.580;2022-11-14T05:36:15;99806.09;;;5.04;89.51
21760;BME280;11041;50.854;20.580;2022-11-14T05:38:42;99803.28;;;4.99;89.33
21760;BME280;11041;50.854;20.580;2022-11-14T05:41:13;99806.66;;;5.06;89.32
21760;BME280;11041;50.854;20.580;2022-11-14T05:43:41;99806.91;;;5.05;89.99
21760;BME280;11041;50.854;20.580;2022-11-14T05:46:11;99815.66;;;5.07;89.34
21760;BME280;11041;50.854;20.580;2022-11-14T05:48:39;99817.31;;;5.08;89.56
21760;BME280;11041;50.854;20.580;2022-11-14T05:51:09;99816.47;;;5.07;89.17
21760;BME280;11041;50.854;20.580;2022-11-14T05:53:37;99819.75;;;5.09;89.52
21760;BME280;11041;50.854;20.580;2022-11-14T05:56:06;99828.69;;;5.05;89.26
21760;BME280;11041;50.854;20.580;2022-11-14T05:58:35;99821.28;;;5.00;89.93
21760;BME280;11041;50.854;20.580;2022-11-14T06:01:17;99826.53;;;5.07;89.07
21760;BME280;11041;50.854;20.580;2022-11-14T06:03:47;99828.78;;;5.10;89.48
21760;BME280;11041;50.854;20.580;2022-11-14T06:06:19;99830.41;;;5.11;89.31
21760;BME280;11041;50.854;20.580;2022-11-14T06:08:48;99832.06;;;5.12;89.15
21760;BME280;11041;50.854;20.580;2022-11-14T06:11:18;99836.44;;;5.13;89.76
21760;BME280;11041;50.854;20.580;2022-11-14T06:13:46;99827.69;;;5.11;89.42
21760;BME280;11041;50.854;20.580;2022-11-14T06:16:18;99829.66;;;5.16;89.24
21760;BME280;11041;50.854;20.580;2022-11-14T06:18:45;99839.47;;;5.17;89.33
21760;BME280;11041;50.854;20.580;2022-11-14T06:21:15;99833.72;;;5.13;89.01
21760;BME280;11041;50.854;20.580;2022-11-14T06:24:15;99839.00;;;5.20;89.41
21760;BME280;11041;50.854;20.580;2022-11-14T06:26:52;99838.06;;;5.14;88.98
21760;BME280;11041;50.854;20.580;2022-11-14T06:29:19;99849.78;;;5.15;89.60
21760;BME280;11041;50.854;20.580;2022-11-14T06:31:46;99842.72;;;5.13;88.95
21760;BME280;11041;50.854;20.580;2022-11-14T06:34:12;99846.31;;;5.19;89.80
21760;BME280;11041;50.854;20.580;2022-11-14T06:36:39;99835.94;;;5.16;89.35
21760;BME280;11041;50.854;20.580;2022-11-14T06:39:05;99845.31;;;5.25;89.13
21760;BME280;11041;50.854;20.580;2022-11-14T06:41:31;99840.44;;;5.27;89.25
21760;BME280;11041;50.854;20.580;2022-11-14T06:43:58;99829.47;;;5.22;89.32
21760;BME280;11041;50.854;20.580;2022-11-14T06:46:40;99842.91;;;5.29;89.77
21760;BME280;11041;50.854;20.580;2022-11-14T06:49:06;99825.66;;;5.23;89.36
21760;BME280;11041;50.854;20.580;2022-11-14T06:51:33;99840.16;;;5.29;89.62
21760;BME280;11041;50.854;20.580;2022-11-14T06:54:00;99834.41;;;5.25;89.04
21760;BME280;11041;50.854;20.580;2022-11-14T06:56:26;99834.16;;;5.27;89.58
21760;BME280;11041;50.854;20.580;2022-11-14T06:58:53;99834.41;;;5.25;89.06
21760;BME280;11041;50.854;20.580;2022-11-14T07:01:23;99841.31;;;5.33;89.11
21760;BME280;11041;50.854;20.580;2022-11-14T07:04:14;99829.53;;;5.27;89.30
21760;BME280;11041;50.854;20.580;2022-11-14T07:07:06;99833.19;;;5.38;89.19
21760;BME280;11041;50.854;20.580;2022-11-14T07:09:35;99832.38;;;5.38;88.88
21760;BME280;11041;50.854;20.580;2022-11-14T07:12:27;99827.50;;;5.40;89.40
21760;BME280;11041;50.854;20.580;2022-11-14T07:15:22;99816.03;;;5.38;89.26
21760;BME280;11041;50.854;20.580;2022-11-14T07:17:48;99810.56;;;5.38;89.39
21760;BME280;11041;50.854;20.580;2022-11-14T07:20:15;99804.03;;;5.39;89.40
21760;BME280;11041;50.854;20.580;2022-11-14T07:22:46;99805.75;;;5.45;89.35
21760;BME280;11041;50.854;20.580;2022-11-14T07:25:13;99815.06;;;5.49;89.53
21760;BME280;11041;50.854;20.580;2022-11-14T07:27:40;99809.66;;;5.54;89.61
21760;BME280;11041;50.854;20.580;2022-11-14T07:30:07;99805.91;;;5.60;89.09
21760;BME280;11041;50.854;20.580;2022-11-14T07:32:34;99814.16;;;5.65;89.17
21760;BME280;11041;50.854;20.580;2022-11-14T07:35:00;99806.03;;;5.70;88.96
21760;BME280;11041;50.854;20.580;2022-11-14T07:37:26;99791.81;;;5.68;89.36
21760;BME280;11041;50.854;20.580;2022-11-14T07:39:53;99794.03;;;5.71;88.97
21760;BME280;11041;50.854;20.580;2022-11-14T07:42:19;99797.28;;;5.68;88.06
21760;BME280;11041;50.854;20.580;2022-11-14T07:44:46;99797.31;;;5.73;88.44
21760;BME280;11041;50.854;20.580;2022-11-14T07:47:12;99798.72;;;5.76;88.60
21760;BME280;11041;50.854;20.580;2022-11-14T07:49:39;99788.56;;;5.71;88.69
21760;BME280;11041;50.854;20.580;2022-11-14T07:52:05;99803.44;;;5.86;88.39
21760;BME280;11041;50.854;20.580;2022-11-14T07:54:36;99798.81;;;5.86;88.68
21760;BME280;11041;50.854;20.580;2022-11-14T07:57:03;99786.22;;;5.80;88.85
21760;BME280;11041;50.854;20.580;2022-11-14T07:59:30;99787.91;;;5.86;88.89
21760;BME280;11041;50.854;20.580;2022-11-14T08:01:56;99799.38;;;5.88;88.36
21760;BME280;11041;50.854;20.580;2022-11-14T08:04:23;99800.19;;;5.89;88.15
21760;BME280;11041;50.854;20.580;2022-11-14T08:06:49;99793.09;;;5.88;87.51
21760;BME280;11041;50.854;20.580;2022-11-14T08:09:16;99795.00;;;5.87;87.88
21760;BME280;11041;50.854;20.580;2022-11-14T08:11:43;99787.03;;;5.81;88.12
21760;BME280;11041;50.854;20.580;2022-11-14T08:14:15;99794.75;;;5.89;88.60
21760;BME280;11041;50.854;20.580;2022-11-14T08:16:42;99788.78;;;5.92;88.54
21760;BME280;11041;50.854;20.580;2022-11-14T08:19:08;99786.63;;;5.94;88.58
21760;BME280;11041;50.854;20.580;2022-11-14T08:21:35;99796.28;;;6.02;88.52
21760;BME280;11041;50.854;20.580;2022-11-14T08:24:01;99780.16;;;6.00;88.35
21760;BME280;11041;50.854;20.580;2022-11-14T08:26:28;99778.84;;;6.08;87.66
21760;BME280;11041;50.854;20.580;2022-11-14T08:28:54;99765.41;;;6.01;87.47
21760;BME280;11041;50.854;20.580;2022-11-14T08:31:21;99762.16;;;5.99;87.80
21760;BME280;11041;50.854;20.580;2022-11-14T08:33:50;99766.25;;;6.02;87.71
21760;BME280;11041;50.854;20.580;2022-11-14T08:36:17;99779.41;;;6.10;88.23
21760;BME280;11041;50.854;20.580;2022-11-14T08:38:44;99772.59;;;6.12;87.87
21760;BME280;11041;50.854;20.580;2022-11-14T08:41:11;99760.34;;;6.15;88.35
21760;BME280;11041;50.854;20.580;2022-11-14T08:43:37;99771.31;;;6.25;87.86
21760;BME280;11041;50.854;20.580;2022-11-14T08:46:04;99777.66;;;6.31;87.38
21760;BME280;11041;50.854;20.580;2022-11-14T08:48:32;99764.56;;;6.28;87.53
21760;BME280;11041;50.854;20.580;2022-11-14T08:51:04;99758.00;;;6.29;87.61
21760;BME280;11041;50.854;20.580;2022-11-14T08:53:33;99764.59;;;6.33;87.70
21760;BME280;11041;50.854;20.580;2022-11-14T08:56:00;99758.56;;;6.31;87.66
21760;BME280;11041;50.854;20.580;2022-11-14T08:58:29;99770.88;;;6.38;86.99
21760;BME280;11041;50.854;20.580;2022-11-14T09:01:05;99763.22;;;6.35;86.95
21760;BME280;11041;50.854;20.580;2022-11-14T09:03:33;99767.84;;;6.35;86.46
21760;BME280;11041;50.854;20.580;2022-11-14T09:06:01;99770.84;;;6.33;86.71
21760;BME280;11041;50.854;20.580;2022-11-14T09:08:28;99762.31;;;6.25;86.54
21760;BME280;11041;50.854;20.580;2022-11-14T09:11:00;99761.28;;;6.31;86.89
21760;BME280;11041;50.854;20.580;2022-11-14T09:13:27;99755.53;;;6.27;86.63
21760;BME280;11041;50.854;20.580;2022-11-14T09:15:53;99748.75;;;6.35;87.02
21760;BME280;11041;50.854;20.580;2022-11-14T09:18:20;99745.50;;;6.38;87.09
21760;BME280;11041;50.854;20.580;2022-11-14T09:20:46;99752.06;;;6.42;87.04
21760;BME280;11041;50.854;20.580;2022-11-14T09:23:13;99739.50;;;6.41;87.01
21760;BME280;11041;50.854;20.580;2022-11-14T09:25:39;99728.63;;;6.46;87.29
21760;BME280;11041;50.854;20.580;2022-11-14T09:28:07;99737.97;;;6.55;87.05
21760;BME280;11041;50.854;20.580;2022-11-14T09:30:36;99728.19;;;6.65;87.51
21760;BME280;11041;50.854;20.580;2022-11-14T09:33:04;99725.44;;;6.65;87.12
21760;BME280;11041;50.854;20.580;2022-11-14T09:35:31;99728.22;;;6.75;86.94
21760;BME280;11041;50.854;20.580;2022-11-14T09:38:02;99719.78;;;6.76;87.03
21760;BME280;11041;50.854;20.580;2022-11-14T09:46:24;99715.19;;;6.92;86.28
21760;BME280;11041;50.854;20.580;2022-11-14T09:48:53;99714.94;;;6.99;85.94
21760;BME280;11041;50.854;20.580;2022-11-14T09:51:28;99708.66;;;6.98;85.44
21760;BME280;11041;50.854;20.580;2022-11-14T09:54:20;99705.94;;;7.03;85.58
21760;BME280;11041;50.854;20.580;2022-11-14T09:56:49;99716.06;;;7.08;85.46
21760;BME280;11041;50.854;20.580;2022-11-14T09:59:16;99699.66;;;7.08;85.66
21760;BME280;11041;50.854;20.580;2022-11-14T10:04:55;99706.81;;;7.19;85.20
21760;BME280;11041;50.854;20.580;2022-11-14T10:10:57;99700.00;;;7.22;83.96
21760;BME280;11041;50.854;20.580;2022-11-14T10:19:22;99692.59;;;7.22;84.61
21760;BME280;11041;50.854;20.580;2022-11-14T10:28:03;99676.72;;;7.14;83.48
21760;BME280;11041;50.854;20.580;2022-11-14T10:30:44;99670.41;;;7.09;84.02
21760;BME280;11041;50.854;20.580;2022-11-14T10:33:46;99672.59;;;7.12;83.95
21760;BME280;11041;50.854;20.580;2022-11-14T10:40:01;99666.06;;;7.08;83.91
21760;BME280;11041;50.854;20.580;2022-11-14T10:42:18;99662.78;;;7.06;84.25
21760;BME280;11041;50.854;20.580;2022-11-14T10:45:01;99658.41;;;7.10;84.59
21760;BME280;11041;50.854;20.580;2022-11-14T10:47:40;99664.97;;;7.19;84.69
21760;BME280;11041;50.854;20.580;2022-11-14T10:50:22;99657.63;;;7.19;85.09
21760;BME280;11041;50.854;20.580;2022-11-14T10:52:59;99655.44;;;7.32;85.53
21760;BME280;11041;50.854;20.580;2022-11-14T10:55:27;99660.66;;;7.43;84.96
21760;BME280;11041;50.854;20.580;2022-11-14T10:57:54;99660.09;;;7.46;83.54
21760;BME280;11041;50.854;20.580;2022-11-14T11:00:21;99660.91;;;7.47;83.24
21760;BME280;11041;50.854;20.580;2022-11-14T11:02:57;99662.56;;;7.53;82.45
21760;BME280;11041;50.854;20.580;2022-11-14T11:05:29;99665.56;;;7.52;81.98
21760;BME280;11041;50.854;20.580;2022-11-14T11:07:59;99649.97;;;7.37;82.54
21760;BME280;11041;50.854;20.580;2022-11-14T11:10:46;99660.63;;;7.28;83.62
21760;BME280;11041;50.854;20.580;2022-11-14T11:13:55;99661.16;;;7.30;84.04
21760;BME280;11041;50.854;20.580;2022-11-14T11:16:25;99653.50;;;7.22;83.81
21760;BME280;11041;50.854;20.580;2022-11-14T11:18:53;99657.88;;;7.28;84.23
21760;BME280;11041;50.854;20.580;2022-11-14T11:21:50;99663.09;;;7.30;84.18
21760;BME280;11041;50.854;20.580;2022-11-14T11:24:36;99653.22;;;7.29;84.44
21760;BME280;11041;50.854;20.580;2022-11-14T11:27:28;99650.53;;;7.34;84.29
21760;BME280;11041;50.854;20.580;2022-11-14T11:30:08;99646.44;;;7.36;84.51
21760;BME280;11041;50.854;20.580;2022-11-14T11:32:40;99634.13;;;7.34;84.27
21760;BME280;11041;50.854;20.580;2022-11-14T11:35:16;99633.28;;;7.38;84.21
21760;BME280;11041;50.854;20.580;2022-11-14T11:37:55;99632.19;;;7.39;83.35
21760;BME280;11041;50.854;20.580;2022-11-14T11:40:28;99629.47;;;7.44;82.31
21760;BME280;11041;50.854;20.580;2022-11-14T11:45:22;99626.19;;;7.32;83.37
21760;BME280;11041;50.854;20.580;2022-11-14T11:48:15;99629.19;;;7.31;83.54
21760;BME280;11041;50.854;20.580;2022-11-14T11:50:43;99618.78;;;7.22;83.92
21760;BME280;11041;50.854;20.580;2022-11-14T11:53:34;99624.81;;;7.24;84.15
21760;BME280;11041;50.854;20.580;2022-11-14T11:56:18;99626.19;;;7.22;84.53
21760;BME280;11041;50.854;20.580;2022-11-14T11:59:15;99623.44;;;7.22;84.87
21760;BME280;11041;50.854;20.580;2022-11-14T12:01:42;99623.44;;;7.27;85.01
21760;BME280;11041;50.854;20.580;2022-11-14T12:04:09;99617.97;;;7.27;85.08
21760;BME280;11041;50.854;20.580;2022-11-14T12:06:51;99612.50;;;7.32;85.00
21760;BME280;11041;50.854;20.580;2022-11-14T12:09:30;99611.41;;;7.38;84.81
21760;BME280;11041;50.854;20.580;2022-11-14T12:12:15;99607.84;;;7.43;84.35
21760;BME280;11041;50.854;20.580;2022-11-14T12:15:58;99612.81;;;7.46;84.19
21760;BME280;11041;50.854;20.580;2022-11-14T12:18:49;99607.03;;;7.47;84.40
21760;BME280;11041;50.854;20.580;2022-11-14T12:25:04;99593.66;;;7.46;84.26
21760;BME280;11041;50.854;20.580;2022-11-14T12:28:40;99603.78;;;7.51;84.20
21760;BME280;11041;50.854;20.580;2022-11-14T12:31:11;99596.66;;;7.50;84.57
21760;BME280;11041;50.854;20.580;2022-11-14T12:33:57;99593.91;;;7.50;84.34
21760;BME280;11041;50.854;20.580;2022-11-14T12:36:31;99591.72;;;7.52;83.94
21760;BME280;11041;50.854;20.580;2022-11-14T12:39:00;99586.81;;;7.49;83.97
21760;BME280;11041;50.854;20.580;2022-11-14T12:41:33;99594.47;;;7.52;84.05
21760;BME280;11041;50.854;20.580;2022-11-14T12:49:38;99590.91;;;7.51;83.74
21760;BME280;11041;50.854;20.580;2022-11-14T12:58:29;99578.88;;;7.52;84.20
21760;BME280;11041;50.854;20.580;2022-11-14T13:07:47;99581.88;;;7.56;84.15
21760;BME280;11041;50.854;20.580;2022-11-14T13:10:36;99570.41;;;7.54;84.03
21760;BME280;11041;50.854;20.580;2022-11-14T13:13:09;99560.28;;;7.49;83.87
21760;BME280;11041;50.854;20.580;2022-11-14T13:16:02;99571.78;;;7.46;84.52
21760;BME280;11041;50.854;20.580;2022-11-14T13:27:28;99560.84;;;7.51;83.85
21760;BME280;11041;50.854;20.580;2022-11-14T13:29:57;99560.84;;;7.46;83.89
21760;BME280;11041;50.854;20.580;2022-11-14T13:52:43;99533.78;;;7.29;84.17
21760;BME280;11041;50.854;20.580;2022-11-14T13:58:45;99538.16;;;7.30;84.46
21760;BME280;11041;50.854;20.580;2022-11-14T14:05:11;99529.94;;;7.30;84.74
21760;BME280;11041;50.854;20.580;2022-11-14T14:17:32;99514.63;;;7.14;84.12
21760;BME280;11041;50.854;20.580;2022-11-14T14:20:28;99514.94;;;7.12;84.25
21760;BME280;11041;50.854;20.580;2022-11-14T14:23:16;99522.28;;;7.07;84.24
21760;BME280;11041;50.854;20.580;2022-11-14T14:26:20;99519.31;;;7.03;84.36
21760;BME280;11041;50.854;20.580;2022-11-14T14:29:28;99509.44;;;7.02;84.42
21760;BME280;11041;50.854;20.580;2022-11-14T14:32:16;99494.41;;;6.94;84.49
21760;BME280;11041;50.854;20.580;2022-11-14T14:34:57;99492.25;;;6.96;84.80
21760;BME280;11041;50.854;20.580;2022-11-14T14:37:28;99497.16;;;6.99;84.73
21760;BME280;11041;50.854;20.580;2022-11-14T14:40:00;99495.53;;;6.98;84.84
21760;BME280;11041;50.854;20.580;2022-11-14T14:42:37;99487.34;;;6.93;84.85
21760;BME280;11041;50.854;20.580;2022-11-14T14:45:13;99491.69;;;6.99;84.64
21760;BME280;11041;50.854;20.580;2022-11-14T14:48:12;99488.41;;;6.97;84.77
21760;BME280;11041;50.854;20.580;2022-11-14T14:50:57;99493.31;;;6.90;84.82
21760;BME280;11041;50.854;20.580;2022-11-14T14:53:28;99498.53;;;6.92;84.78
21760;BME280;11041;50.854;20.580;2022-11-14T14:56:01;99484.56;;;6.83;85.01
21760;BME280;11041;50.854;20.580;2022-11-14T14:58:31;99480.50;;;6.86;84.91
21760;BME280;11041;50.854;20.580;2022-11-14T15:01:12;99492.25;;;6.86;84.88
21760;BME280;11041;50.854;20.580;2022-11-14T15:03:45;99503.19;;;6.86;84.87
21760;BME280;11041;50.854;20.580;2022-11-14T15:11:48;99471.22;;;6.76;85.02